Time;durP1;ratioP1;P1;durP2;ratioP2;P2;SDS_P1;SDS_P2;PMS_P1;PMS_P2;Temp;Humidity;BMP_temperature;BMP_pressure;BME280_temperature;BME280_humidity;BME280_pressure;Samples;Min_cycle;Max_cycle;Signal;HPM_P1;HPM_P2
2023/12/11 00:02:03;;;;;;;5.10;1.77;;;;;;;;;;4827674;29;20050;-84
2023/12/11 00:04:32;;;;;;;7.50;1.42;;;;;;;;;;4829102;29;20501;-85
2023/12/11 00:07:03;;;;;;;6.55;1.50;;;;;;;;;;4828424;29;20049;-87
2023/12/11 00:09:33;;;;;;;1.98;0.90;;;;;;;;;;4829147;29;20414;-86
2023/12/11 00:12:03;;;;;;;5.22;1.55;;;;;;;;;;4835236;29;20061;-90
2023/12/11 00:14:35;;;;;;;8.05;1.80;;;;;;;;;;4845377;29;20520;-84
2023/12/11 00:17:05;;;;;;;5.90;1.40;;;;;;;;;;4845269;29;20069;-83
2023/12/11 00:19:35;;;;;;;7.00;2.30;;;;;;;;;;4844842;29;20053;-85
2023/12/11 00:22:05;;;;;;;6.68;1.77;;;;;;;;;;4842384;29;20053;-84
2023/12/11 00:24:35;;;;;;;4.82;1.35;;;;;;;;;;4825538;29;20062;-85
2023/12/11 00:27:05;;;;;;;1.73;1.08;;;;;;;;;;4825991;29;20051;-85
2023/12/11 00:29:39;;;;;;;3.13;1.30;;;;;;;;;;4825624;29;20058;-89
2023/12/11 00:32:10;;;;;;;2.55;1.25;;;;;;;;;;4825367;29;20054;-84
2023/12/11 00:34:41;;;;;;;12.18;2.00;;;;;;;;;;4825478;29;20058;-84
2023/12/11 00:37:12;;;;;;;5.07;1.20;;;;;;;;;;4825350;29;20058;-86
2023/12/11 00:39:42;;;;;;;5.78;1.75;;;;;;;;;;4830338;29;20054;-89
2023/12/11 00:42:12;;;;;;;5.82;2.10;;;;;;;;;;4839273;29;20500;-86
2023/12/11 00:44:42;;;;;;;4.38;1.60;;;;;;;;;;4825294;29;20054;-84
2023/12/11 00:47:14;;;;;;;3.55;1.42;;;;;;;;;;4843812;29;20065;-85
2023/12/11 00:49:44;;;;;;;2.88;1.35;;;;;;;;;;4833044;29;20059;-88
2023/12/11 00:52:14;;;;;;;4.13;1.45;;;;;;;;;;4853934;29;20065;-86
2023/12/11 00:54:45;;;;;;;3.00;1.50;;;;;;;;;;4839147;29;20046;-86
2023/12/11 00:57:16;;;;;;;7.88;2.38;;;;;;;;;;4844327;29;20528;-85
2023/12/11 00:59:46;;;;;;;5.35;1.40;;;;;;;;;;4840792;29;20399;-87
2023/12/11 01:02:17;;;;;;;5.70;1.42;;;;;;;;;;4842348;29;20057;-90
2023/12/11 01:04:48;;;;;;;8.55;1.63;;;;;;;;;;4843388;29;20045;-86
2023/12/11 01:07:19;;;;;;;4.18;1.58;;;;;;;;;;4843939;29;20046;-85
2023/12/11 01:09:50;;;;;;;4.25;1.55;;;;;;;;;;4842558;29;20058;-85
2023/12/11 01:12:24;;;;;;;4.45;1.05;;;;;;;;;;4826566;29;20426;-86
2023/12/11 01:14:55;;;;;;;5.13;1.65;;;;;;;;;;4824715;29;20058;-85
2023/12/11 01:17:27;;;;;;;5.88;1.40;;;;;;;;;;4822534;29;20058;-84
2023/12/11 01:20:11;;;;;;;;;;;;;;;;;;4823987;29;20061;-87
2023/12/11 01:22:41;;;;;;;3.13;0.93;;;;;;;;;;4825323;29;19987;-84
2023/12/11 01:25:11;;;;;;;5.50;1.80;;;;;;;;;;4824865;29;20077;-84
2023/12/11 01:27:43;;;;;;;5.07;1.40;;;;;;;;;;4825628;29;20494;-83
2023/12/11 01:30:13;;;;;;;4.93;0.98;;;;;;;;;;4843348;29;20493;-85
2023/12/11 01:32:43;;;;;;;4.20;1.48;;;;;;;;;;4841721;29;20061;-84
2023/12/11 01:35:14;;;;;;;4.95;1.75;;;;;;;;;;4841972;29;20053;-86
2023/12/11 01:37:46;;;;;;;3.67;1.30;;;;;;;;;;4843148;29;20058;-88
2023/12/11 01:40:17;;;;;;;6.28;1.30;;;;;;;;;;4835753;29;20050;-85
2023/12/11 01:42:49;;;;;;;4.95;1.50;;;;;;;;;;4840571;29;20065;-85
2023/12/11 01:45:25;;;;;;;4.00;1.38;;;;;;;;;;4841558;29;20061;-87
2023/12/11 01:47:57;;;;;;;2.92;1.50;;;;;;;;;;4826947;29;20054;-84
2023/12/11 01:50:28;;;;;;;5.57;1.55;;;;;;;;;;4840945;29;20065;-85
2023/12/11 01:53:01;;;;;;;3.10;1.63;;;;;;;;;;4841447;29;20058;-85
2023/12/11 01:55:33;;;;;;;7.88;1.65;;;;;;;;;;4842616;29;20046;-86
2023/12/11 01:58:06;;;;;;;4.18;1.50;;;;;;;;;;4841017;29;20054;-86
2023/12/11 02:00:40;;;;;;;3.55;1.42;;;;;;;;;;4841217;29;20062;-85
2023/12/11 02:03:11;;;;;;;4.38;2.08;;;;;;;;;;4842734;29;20049;-85
2023/12/11 02:05:43;;;;;;;3.88;1.30;;;;;;;;;;4836550;29;20054;-84
2023/12/11 02:08:15;;;;;;;5.20;1.65;;;;;;;;;;4823301;29;20518;-86
2023/12/11 02:10:46;;;;;;;6.97;2.13;;;;;;;;;;4822716;29;20042;-84
2023/12/11 02:13:17;;;;;;;5.07;1.85;;;;;;;;;;4823128;29;20059;-87
2023/12/11 02:15:47;;;;;;;9.23;1.67;;;;;;;;;;4824247;29;20054;-85
2023/12/11 02:18:17;;;;;;;2.70;1.85;;;;;;;;;;4823183;29;20065;-85
2023/12/11 02:20:49;;;;;;;8.65;1.70;;;;;;;;;;4824029;29;20054;-84
2023/12/11 02:23:44;;;;;;;2.38;1.83;;;;;;;;;;4823630;29;20058;-86
2023/12/11 02:26:16;;;;;;;4.47;1.73;;;;;;;;;;4808203;29;20054;-84
2023/12/11 02:28:47;;;;;;;4.15;1.40;;;;;;;;;;4834673;29;20065;-85
2023/12/11 02:31:18;;;;;;;4.13;1.40;;;;;;;;;;4841578;29;20053;-83
2023/12/11 02:33:49;;;;;;;4.18;1.00;;;;;;;;;;4841108;29;20413;-84
2023/12/11 02:36:20;;;;;;;6.45;1.52;;;;;;;;;;4839040;29;20046;-86
2023/12/11 02:38:51;;;;;;;3.10;1.40;;;;;;;;;;4833713;29;20054;-89
2023/12/11 02:41:21;;;;;;;6.90;2.15;;;;;;;;;;4831217;29;20061;-87
2023/12/11 02:43:53;;;;;;;7.22;2.33;;;;;;;;;;4831759;29;20077;-85
2023/12/11 02:46:23;;;;;;;7.40;1.70;;;;;;;;;;4831506;29;20054;-86
2023/12/11 02:48:54;;;;;;;5.53;1.45;;;;;;;;;;4823517;29;20046;-85
2023/12/11 02:51:26;;;;;;;4.45;2.03;;;;;;;;;;4824902;29;20056;-87
2023/12/11 02:53:57;;;;;;;6.65;2.15;;;;;;;;;;4831972;29;20505;-85
2023/12/11 02:56:28;;;;;;;7.63;1.58;;;;;;;;;;4832010;29;20525;-88
2023/12/11 02:58:58;;;;;;;3.70;1.13;;;;;;;;;;4831663;29;20410;-87
2023/12/11 03:01:30;;;;;;;9.30;1.83;;;;;;;;;;4832706;29;20054;-85
2023/12/11 03:04:00;;;;;;;5.15;1.38;;;;;;;;;;4830178;29;20050;-86
2023/12/11 03:06:31;;;;;;;4.55;1.30;;;;;;;;;;4832185;29;20050;-87
2023/12/11 03:09:02;;;;;;;6.75;1.13;;;;;;;;;;4831525;29;20469;-86
2023/12/11 03:11:34;;;;;;;6.35;1.83;;;;;;;;;;4830234;29;20062;-84
2023/12/11 03:14:04;;;;;;;6.38;1.60;;;;;;;;;;4830823;29;20429;-84
2023/12/11 03:16:34;;;;;;;5.82;1.45;;;;;;;;;;4832063;29;20401;-89
2023/12/11 03:19:05;;;;;;;6.13;1.80;;;;;;;;;;4829336;29;20062;-84
2023/12/11 03:21:35;;;;;;;8.82;1.70;;;;;;;;;;4830846;29;20054;-87
2023/12/11 03:24:06;;;;;;;5.40;1.55;;;;;;;;;;4830263;29;20502;-86
2023/12/11 03:26:35;;;;;;;6.47;1.77;;;;;;;;;;4831671;29;20482;-88
2023/12/11 03:29:05;;;;;;;9.77;2.13;;;;;;;;;;4834276;29;20528;-85
2023/12/11 03:31:37;;;;;;;5.13;1.02;;;;;;;;;;4831007;29;20401;-88
2023/12/11 03:34:07;;;;;;;2.83;1.10;;;;;;;;;;4831480;29;20175;-85
2023/12/11 03:36:38;;;;;;;7.60;1.30;;;;;;;;;;4829699;29;20407;-90
2023/12/11 03:39:09;;;;;;;7.55;1.83;;;;;;;;;;4829335;29;20501;-88
2023/12/11 03:41:39;;;;;;;2.90;1.58;;;;;;;;;;4830350;29;20065;-90
2023/12/11 03:44:10;;;;;;;6.38;2.13;;;;;;;;;;4833433;29;20046;-85
2023/12/11 03:46:41;;;;;;;7.47;1.88;;;;;;;;;;4829637;29;20046;-83
2023/12/11 03:49:19;;;;;;;4.75;1.65;;;;;;;;;;4830539;29;20046;-87
2023/12/11 03:51:53;;;;;;;3.88;1.60;;;;;;;;;;4828049;29;20046;-85
2023/12/11 03:54:24;;;;;;;7.22;1.60;;;;;;;;;;4832769;29;20050;-85
2023/12/11 03:56:54;;;;;;;6.53;2.33;;;;;;;;;;4830361;29;20073;-86
2023/12/11 03:59:25;;;;;;;4.53;2.53;;;;;;;;;;4833188;29;20046;-86
2023/12/11 04:01:54;;;;;;;8.43;3.63;;;;;;;;;;4830840;29;20057;-85
2023/12/11 04:04:25;;;;;;;8.07;4.63;;;;;;;;;;4831764;29;20049;-84
2023/12/11 04:06:55;;;;;;;10.93;3.35;;;;;;;;;;4831177;29;20053;-87
2023/12/11 04:09:27;;;;;;;9.90;3.35;;;;;;;;;;4831725;29;20046;-85
2023/12/11 04:11:57;;;;;;;6.82;2.35;;;;;;;;;;4833976;29;20054;-84
2023/12/11 04:14:27;;;;;;;7.93;1.42;;;;;;;;;;4838852;29;20414;-85
2023/12/11 04:16:57;;;;;;;6.15;2.63;;;;;;;;;;4854270;29;20466;-84
2023/12/11 04:19:29;;;;;;;3.33;1.73;;;;;;;;;;4844447;29;20065;-85
2023/12/11 04:22:00;;;;;;;5.60;1.67;;;;;;;;;;4840094;29;20053;-85
2023/12/11 04:24:30;;;;;;;9.20;1.52;;;;;;;;;;4841732;29;20412;-87
2023/12/11 04:27:00;;;;;;;6.82;1.75;;;;;;;;;;4839952;29;20053;-85
2023/12/11 04:29:30;;;;;;;5.47;1.30;;;;;;;;;;4840623;29;20058;-85
2023/12/11 04:32:01;;;;;;;7.78;1.75;;;;;;;;;;4842299;29;20054;-86
2023/12/11 04:34:31;;;;;;;9.57;2.05;;;;;;;;;;4843195;29;20057;-85
2023/12/11 04:37:03;;;;;;;4.72;2.13;;;;;;;;;;4843927;29;20453;-85
2023/12/11 04:39:34;;;;;;;4.40;1.25;;;;;;;;;;4845122;29;20382;-85
2023/12/11 04:42:05;;;;;;;1.95;1.45;;;;;;;;;;4845029;29;20054;-85
2023/12/11 04:44:35;;;;;;;8.30;2.13;;;;;;;;;;4845171;29;20042;-84
2023/12/11 04:47:05;;;;;;;4.80;1.95;;;;;;;;;;4844358;29;20072;-85
2023/12/11 04:49:35;;;;;;;7.40;2.03;;;;;;;;;;4840664;29;20417;-84
2023/12/11 04:52:06;;;;;;;10.07;4.15;;;;;;;;;;4842377;29;20053;-85
2023/12/11 04:54:36;;;;;;;8.80;3.67;;;;;;;;;;4842459;29;20050;-88
2023/12/11 04:57:07;;;;;;;14.48;4.35;;;;;;;;;;4841468;29;20046;-85
2023/12/11 04:59:38;;;;;;;11.82;3.58;;;;;;;;;;4841080;29;20058;-87
2023/12/11 05:02:12;;;;;;;12.02;5.18;;;;;;;;;;4841136;29;20053;-85
2023/12/11 05:04:42;;;;;;;9.25;3.55;;;;;;;;;;4842489;29;20053;-85
2023/12/11 05:07:12;;;;;;;8.30;3.42;;;;;;;;;;4842389;29;20053;-87
2023/12/11 05:09:44;;;;;;;10.25;3.40;;;;;;;;;;4841120;29;20054;-84
2023/12/11 05:12:15;;;;;;;5.70;3.13;;;;;;;;;;4840768;29;20046;-85
2023/12/11 05:14:46;;;;;;;10.38;2.90;;;;;;;;;;4842296;29;20061;-85
2023/12/11 05:17:18;;;;;;;7.40;2.80;;;;;;;;;;4842887;29;20049;-88
2023/12/11 05:19:49;;;;;;;8.95;3.00;;;;;;;;;;4842930;29;20050;-85
2023/12/11 05:22:19;;;;;;;14.55;2.88;;;;;;;;;;4844998;29;20374;-87
2023/12/11 05:24:50;;;;;;;11.23;2.78;;;;;;;;;;4844983;29;20045;-85
2023/12/11 05:27:21;;;;;;;7.78;2.53;;;;;;;;;;4843561;29;20049;-84
2023/12/11 05:29:51;;;;;;;11.43;3.10;;;;;;;;;;4842276;29;20058;-84
2023/12/11 05:32:21;;;;;;;8.90;2.78;;;;;;;;;;4842417;29;20062;-86
2023/12/11 05:34:50;;;;;;;11.80;2.20;;;;;;;;;;4844325;29;20053;-85
2023/12/11 05:37:21;;;;;;;18.35;2.63;;;;;;;;;;4843068;29;20069;-85
2023/12/11 05:39:51;;;;;;;28.80;2.80;;;;;;;;;;4843866;29;20046;-85
2023/12/11 05:42:41;;;;;;;18.25;2.70;;;;;;;;;;4844319;29;20069;-85
2023/12/11 05:45:11;;;;;;;9.38;2.53;;;;;;;;;;4843775;29;20080;-86
2023/12/11 05:47:42;;;;;;;12.80;2.50;;;;;;;;;;4843560;29;20057;-85
2023/12/11 05:50:12;;;;;;;7.22;2.92;;;;;;;;;;4827051;29;20501;-86
2023/12/11 05:52:44;;;;;;;10.35;2.00;;;;;;;;;;4842653;29;20046;-85
2023/12/11 05:55:14;;;;;;;10.23;1.50;;;;;;;;;;4842542;29;20046;-86
2023/12/11 05:57:44;;;;;;;7.80;1.77;;;;;;;;;;4841901;29;20054;-86
2023/12/11 06:00:17;;;;;;;5.35;1.67;;;;;;;;;;4843876;29;20553;-86
2023/12/11 06:02:49;;;;;;;6.30;1.73;;;;;;;;;;4844198;29;20509;-87
2023/12/11 06:05:19;;;;;;;10.13;1.80;;;;;;;;;;4843617;29;20042;-84
2023/12/11 06:07:50;;;;;;;6.47;1.50;;;;;;;;;;4842735;29;20399;-86
2023/12/11 06:10:21;;;;;;;2.28;1.63;;;;;;;;;;4842444;29;20054;-87
2023/12/11 06:12:51;;;;;;;5.72;2.15;;;;;;;;;;4844039;29;20057;-85
2023/12/11 06:15:22;;;;;;;9.10;2.10;;;;;;;;;;4841218;29;20505;-87
2023/12/11 06:17:52;;;;;;;4.28;1.65;;;;;;;;;;4842561;29;20068;-85
2023/12/11 06:20:22;;;;;;;4.00;1.83;;;;;;;;;;4841857;29;20061;-86
2023/12/11 06:22:53;;;;;;;5.07;1.80;;;;;;;;;;4826679;29;20490;-86
2023/12/11 06:25:23;;;;;;;6.50;2.13;;;;;;;;;;4843177;29;20053;-85
2023/12/11 06:27:54;;;;;;;5.28;2.20;;;;;;;;;;4842250;29;20076;-87
2023/12/11 06:30:24;;;;;;;5.13;1.80;;;;;;;;;;4841579;29;20057;-87
2023/12/11 06:32:53;;;;;;;4.28;2.17;;;;;;;;;;4841570;29;20065;-85
2023/12/11 06:35:26;;;;;;;6.07;2.25;;;;;;;;;;4843273;29;20491;-85
2023/12/11 06:37:56;;;;;;;9.25;2.13;;;;;;;;;;4842844;29;20046;-86
2023/12/11 06:40:27;;;;;;;7.25;1.98;;;;;;;;;;4843083;29;20512;-85
2023/12/11 06:42:57;;;;;;;8.55;1.98;;;;;;;;;;4843017;29;20560;-85
2023/12/11 06:45:26;;;;;;;10.27;2.25;;;;;;;;;;4841528;29;20084;-84
2023/12/11 06:48:01;;;;;;;7.68;2.20;;;;;;;;;;4842968;29;20050;-85
2023/12/11 06:50:31;;;;;;;4.03;2.10;;;;;;;;;;4842794;29;20490;-85
2023/12/11 06:53:01;;;;;;;6.88;1.90;;;;;;;;;;4841945;29;20054;-85
2023/12/11 06:55:31;;;;;;;7.97;2.45;;;;;;;;;;4842686;29;20052;-85
2023/12/11 06:58:01;;;;;;;7.50;2.47;;;;;;;;;;4842015;29;20058;-84
2023/12/11 07:00:31;;;;;;;11.30;2.33;;;;;;;;;;4841414;29;20061;-85
2023/12/11 07:03:01;;;;;;;14.30;2.28;;;;;;;;;;4842428;29;20065;-85
2023/12/11 07:05:31;;;;;;;6.72;2.20;;;;;;;;;;4841583;29;20466;-85
2023/12/11 07:08:02;;;;;;;3.25;1.73;;;;;;;;;;4842699;29;20494;-85
2023/12/11 07:10:32;;;;;;;8.10;2.22;;;;;;;;;;4842526;29;20137;-85
2023/12/11 07:13:06;;;;;;;7.43;1.67;;;;;;;;;;4841409;29;20054;-84
2023/12/11 07:15:37;;;;;;;4.53;1.70;;;;;;;;;;4841926;29;20057;-84
2023/12/11 07:18:07;;;;;;;2.55;1.35;;;;;;;;;;4840761;29;20050;-84
2023/12/11 07:20:37;;;;;;;5.63;2.05;;;;;;;;;;4840861;29;20065;-85
2023/12/11 07:23:07;;;;;;;4.90;2.05;;;;;;;;;;4842339;29;20050;-86
2023/12/11 07:25:37;;;;;;;5.88;1.92;;;;;;;;;;4825718;29;20062;-85
2023/12/11 07:28:10;;;;;;;5.57;1.98;;;;;;;;;;4840536;29;20058;-88
2023/12/11 07:30:40;;;;;;;12.10;2.35;;;;;;;;;;4842092;29;20520;-84
2023/12/11 07:33:10;;;;;;;7.28;2.33;;;;;;;;;;4841995;29;20513;-86
2023/12/11 07:35:41;;;;;;;6.68;2.50;;;;;;;;;;4826247;29;20064;-86
2023/12/11 07:38:11;;;;;;;10.85;2.63;;;;;;;;;;4842088;29;20433;-85
2023/12/11 07:40:41;;;;;;;11.68;2.15;;;;;;;;;;4841269;29;20049;-85
2023/12/11 07:43:13;;;;;;;21.38;2.67;;;;;;;;;;4842397;29;20528;-85
2023/12/11 07:45:44;;;;;;;32.45;3.95;;;;;;;;;;4840797;29;20145;-86
2023/12/11 07:48:15;;;;;;;78.65;6.03;;;;;;;;;;4841328;29;20060;-85
2023/12/11 07:50:46;;;;;;;30.27;2.30;;;;;;;;;;4840370;29;20394;-86
2023/12/11 07:53:16;;;;;;;23.23;1.92;;;;;;;;;;4840482;29;20429;-87
2023/12/11 07:55:46;;;;;;;13.35;2.08;;;;;;;;;;4840459;29;20171;-88
2023/12/11 07:58:17;;;;;;;8.00;2.80;;;;;;;;;;4842180;29;20069;-89
2023/12/11 08:00:47;;;;;;;10.27;2.13;;;;;;;;;;4841160;29;20405;-88
2023/12/11 08:03:19;;;;;;;15.73;2.45;;;;;;;;;;4840349;29;20524;-85
2023/12/11 08:05:49;;;;;;;26.73;2.60;;;;;;;;;;4840913;29;20046;-85
2023/12/11 08:08:20;;;;;;;19.95;2.38;;;;;;;;;;4841210;29;20050;-86
2023/12/11 08:10:52;;;;;;;7.15;2.28;;;;;;;;;;4844068;29;20069;-84
2023/12/11 08:13:22;;;;;;;16.40;2.75;;;;;;;;;;4843927;29;20061;-88
2023/12/11 08:15:52;;;;;;;15.75;2.60;;;;;;;;;;4845711;29;20046;-85
2023/12/11 08:18:23;;;;;;;20.88;2.15;;;;;;;;;;4845866;29;20058;-87
2023/12/11 08:20:54;;;;;;;17.48;2.20;;;;;;;;;;4845590;29;20462;-84
2023/12/11 08:23:24;;;;;;;10.50;2.40;;;;;;;;;;4843849;29;20061;-85
2023/12/11 08:25:54;;;;;;;27.25;1.85;;;;;;;;;;4844163;29;20386;-85
2023/12/11 08:28:24;;;;;;;11.43;2.10;;;;;;;;;;4843206;29;20061;-84
2023/12/11 08:30:55;;;;;;;7.93;2.17;;;;;;;;;;4845645;29;20050;-85
2023/12/11 08:33:26;;;;;;;23.17;3.45;;;;;;;;;;4843715;29;20057;-85
2023/12/11 08:35:56;;;;;;;14.55;2.33;;;;;;;;;;4844304;29;20061;-86
2023/12/11 08:38:27;;;;;;;24.70;2.63;;;;;;;;;;4844521;29;20061;-85
2023/12/11 08:40:57;;;;;;;24.45;3.50;;;;;;;;;;4845274;29;20049;-86
2023/12/11 08:43:28;;;;;;;24.63;2.67;;;;;;;;;;4845382;29;20066;-86
2023/12/11 08:45:58;;;;;;;16.85;2.70;;;;;;;;;;4828604;29;20066;-87
2023/12/11 08:48:28;;;;;;;19.38;2.75;;;;;;;;;;4845231;29;20405;-85
2023/12/11 08:50:59;;;;;;;27.00;2.28;;;;;;;;;;4843266;29;20057;-85
2023/12/11 08:53:29;;;;;;;26.13;2.95;;;;;;;;;;4843494;29;20054;-85
2023/12/11 08:56:01;;;;;;;34.13;4.07;;;;;;;;;;4843781;29;20061;-86
2023/12/11 08:58:33;;;;;;;39.95;3.15;;;;;;;;;;4844967;29;20382;-85
2023/12/11 09:01:03;;;;;;;14.85;2.10;;;;;;;;;;4827773;29;20389;-85
2023/12/11 09:03:33;;;;;;;29.50;2.85;;;;;;;;;;4842636;29;20065;-87
2023/12/11 09:06:04;;;;;;;11.95;2.17;;;;;;;;;;4844473;29;20409;-85
2023/12/11 09:08:35;;;;;;;24.05;2.97;;;;;;;;;;4843045;29;20058;-83
2023/12/11 09:11:06;;;;;;;51.13;4.88;;;;;;;;;;4844804;29;20049;-85
2023/12/11 09:13:36;;;;;;;23.50;3.05;;;;;;;;;;4844510;29;20486;-84
2023/12/11 09:16:07;;;;;;;56.53;4.35;;;;;;;;;;4843757;29;20058;-84
2023/12/11 09:18:39;;;;;;;36.25;3.70;;;;;;;;;;4843118;29;20061;-85
2023/12/11 09:21:10;;;;;;;62.78;4.65;;;;;;;;;;4843717;29;20053;-87
2023/12/11 09:23:40;;;;;;;10.55;3.47;;;;;;;;;;4842358;29;20057;-85
2023/12/11 09:26:10;;;;;;;36.75;5.28;;;;;;;;;;4842590;29;20061;-88
2023/12/11 09:28:42;;;;;;;41.25;6.82;;;;;;;;;;4844502;29;20398;-85
2023/12/11 09:31:20;;;;;;;42.22;9.18;;;;;;;;;;4843104;29;20053;-85
2023/12/11 09:33:52;;;;;;;36.88;7.88;;;;;;;;;;4842746;29;20406;-85
2023/12/11 09:36:23;;;;;;;22.30;6.38;;;;;;;;;;4841583;29;20061;-85
2023/12/11 09:38:53;;;;;;;25.08;6.97;;;;;;;;;;4842284;29;20062;-86
2023/12/11 09:41:23;;;;;;;32.33;6.25;;;;;;;;;;4833030;29;20494;-86
2023/12/11 09:43:54;;;;;;;30.42;6.28;;;;;;;;;;4824290;29;20467;-88
2023/12/11 09:46:31;;;;;;;15.23;5.07;;;;;;;;;;4821040;29;20050;-86
2023/12/11 09:49:02;;;;;;;16.63;4.47;;;;;;;;;;4843314;29;20053;-87
2023/12/11 09:51:33;;;;;;;20.73;4.60;;;;;;;;;;4839574;29;20413;-88
2023/12/11 09:54:05;;;;;;;15.70;5.40;;;;;;;;;;4820495;29;20050;-91
2023/12/11 09:56:36;;;;;;;17.38;5.70;;;;;;;;;;4838728;29;20058;-86
2023/12/11 09:59:09;;;;;;;14.60;5.88;;;;;;;;;;4826513;29;20062;-87
2023/12/11 10:01:40;;;;;;;14.77;5.40;;;;;;;;;;4837929;29;20058;-87
2023/12/11 10:04:12;;;;;;;16.77;5.90;;;;;;;;;;4832542;29;20049;-89
2023/12/11 10:06:43;;;;;;;19.50;7.70;;;;;;;;;;4835187;29;20046;-86
2023/12/11 10:09:34;;;;;;;27.20;6.25;;;;;;;;;;4840590;29;20527;-86
2023/12/11 10:12:06;;;;;;;12.30;5.07;;;;;;;;;;4822579;29;20046;-87
2023/12/11 10:14:37;;;;;;;21.27;8.27;;;;;;;;;;4823212;29;20064;-86
2023/12/11 10:17:17;;;;;;;23.23;7.03;;;;;;;;;;4822675;29;20053;-86
2023/12/11 10:19:48;;;;;;;24.85;7.20;;;;;;;;;;4822881;29;20383;-84
2023/12/11 10:22:31;;;;;;;19.52;7.60;;;;;;;;;;4822865;29;20050;-84
2023/12/11 10:25:02;;;;;;;19.17;7.25;;;;;;;;;;4823079;29;20408;-85
2023/12/11 10:27:33;;;;;;;19.13;7.93;;;;;;;;;;4824900;29;20053;-84
2023/12/11 10:30:12;;;;;;;20.20;7.75;;;;;;;;;;4822280;29;20070;-84
2023/12/11 10:32:43;;;;;;;18.17;6.63;;;;;;;;;;4824627;29;20053;-84
2023/12/11 10:35:23;;;;;;;19.25;7.10;;;;;;;;;;4824750;29;20061;-87
2023/12/11 10:38:02;;;;;;;19.70;8.23;;;;;;;;;;4825159;29;20062;-86
2023/12/11 10:40:37;;;;;;;20.35;7.97;;;;;;;;;;4824813;29;20046;-87
2023/12/11 10:43:09;;;;;;;18.48;7.20;;;;;;;;;;4822209;29;20054;-85
2023/12/11 10:45:40;;;;;;;19.17;7.47;;;;;;;;;;4823424;29;20054;-86
2023/12/11 10:48:11;;;;;;;19.52;8.07;;;;;;;;;;4836774;29;20054;-84
2023/12/11 10:50:42;;;;;;;21.17;7.60;;;;;;;;;;4823418;29;20050;-85
2023/12/11 10:53:14;;;;;;;14.55;6.63;;;;;;;;;;4822879;29;20054;-84
2023/12/11 10:55:48;;;;;;;14.20;6.18;;;;;;;;;;4834377;29;20043;-85
2023/12/11 10:58:20;;;;;;;14.05;6.13;;;;;;;;;;4839613;29;20050;-87
2023/12/11 11:00:50;;;;;;;11.05;4.68;;;;;;;;;;4841836;29;20497;-85
2023/12/11 11:03:23;;;;;;;12.23;4.57;;;;;;;;;;4841702;29;20053;-86
2023/12/11 11:05:57;;;;;;;11.45;5.07;;;;;;;;;;4840390;29;20079;-85
2023/12/11 11:08:54;;;;;;;12.18;5.35;;;;;;;;;;4840098;29;20057;-85
2023/12/11 11:11:32;;;;;;;;;;;;;;;;;;4842995;29;20057;-86
2023/12/11 11:14:30;;;;;;;;;;;;;;;;;;4843108;29;19932;-87
2023/12/11 11:17:01;;;;;;;16.17;6.03;;;;;;;;;;4840917;29;19935;-88
2023/12/11 11:19:31;;;;;;;12.50;5.95;;;;;;;;;;4842476;29;20390;-88
2023/12/11 11:22:04;;;;;;;16.15;7.60;;;;;;;;;;4841256;29;20054;-87
2023/12/11 11:24:35;;;;;;;18.60;7.80;;;;;;;;;;4841278;29;20049;-85
2023/12/11 11:27:40;;;;;;;20.17;10.32;;;;;;;;;;4831569;29;20494;-84
2023/12/11 11:30:30;;;;;;;19.13;9.05;;;;;;;;;;4832601;29;20054;-84
2023/12/11 11:33:01;;;;;;;20.45;10.80;;;;;;;;;;4832763;29;20053;-86
2023/12/11 11:35:52;;;;;;;24.95;10.70;;;;;;;;;;4822786;29;20042;-86
2023/12/11 11:38:53;;;;;;;26.80;10.73;;;;;;;;;;4822897;29;20406;-84
2023/12/11 11:41:28;;;;;;;32.03;13.02;;;;;;;;;;4822687;29;20050;-84
2023/12/11 11:44:09;;;;;;;27.50;12.45;;;;;;;;;;4826910;29;20054;-84
2023/12/11 11:46:55;;;;;;;24.00;11.07;;;;;;;;;;4846012;29;20046;-85
2023/12/11 11:49:34;;;;;;;21.85;9.43;;;;;;;;;;4844637;29;20049;-83
2023/12/11 11:52:07;;;;;;;18.73;10.15;;;;;;;;;;4846132;29;20042;-84
2023/12/11 11:54:38;;;;;;;10.57;2.78;;;;;;;;;;4846136;29;20057;-85
2023/12/11 11:57:09;;;;;;;5.63;2.63;;;;;;;;;;4844405;29;20042;-83
2023/12/11 11:59:45;;;;;;;5.50;1.60;;;;;;;;;;4845900;29;20545;-83
2023/12/11 12:02:23;;;;;;;5.28;2.60;;;;;;;;;;4846101;29;20068;-86
2023/12/11 12:04:54;;;;;;;8.93;3.55;;;;;;;;;;4846025;29;20058;-85
2023/12/11 12:07:24;;;;;;;7.97;2.70;;;;;;;;;;4844393;29;20042;-82
2023/12/11 12:09:59;;;;;;;2.70;1.70;;;;;;;;;;4844382;29;20061;-83
2023/12/11 12:12:29;;;;;;;2.90;1.30;;;;;;;;;;4845531;29;20053;-83
2023/12/11 12:15:04;;;;;;;2.38;1.27;;;;;;;;;;4843702;29;20502;-81
2023/12/11 12:17:36;;;;;;;3.63;1.38;;;;;;;;;;4844473;29;20046;-83
2023/12/11 12:20:19;;;;;;;1.90;1.20;;;;;;;;;;4844735;29;20050;-83
2023/12/11 12:22:59;;;;;;;4.50;1.23;;;;;;;;;;4843302;29;20546;-85
2023/12/11 12:25:31;;;;;;;1.63;1.00;;;;;;;;;;4844742;29;20769;-85
2023/12/11 12:28:11;;;;;;;2.42;1.45;;;;;;;;;;4844147;29;20053;-84
2023/12/11 12:30:43;;;;;;;2.35;1.55;;;;;;;;;;4844998;29;20053;-84
2023/12/11 12:33:13;;;;;;;2.03;1.60;;;;;;;;;;4828214;29;20058;-88
2023/12/11 12:35:48;;;;;;;2.08;1.10;;;;;;;;;;4844514;29;20471;-84
2023/12/11 12:38:19;;;;;;;1.52;1.00;;;;;;;;;;4842829;29;20050;-84
2023/12/11 12:40:51;;;;;;;3.13;0.80;;;;;;;;;;4843089;29;20402;-87
2023/12/11 12:43:24;;;;;;;3.90;1.63;;;;;;;;;;4844549;29;20417;-84
2023/12/11 12:46:00;;;;;;;5.25;4.20;;;;;;;;;;4844144;29;20516;-85
2023/12/11 12:48:30;;;;;;;2.10;1.48;;;;;;;;;;4844369;29;20496;-85
2023/12/11 12:51:09;;;;;;;3.63;1.10;;;;;;;;;;4843779;29;20050;-84
2023/12/11 12:53:49;;;;;;;1.83;1.17;;;;;;;;;;4844423;29;20053;-85
2023/12/11 12:56:20;;;;;;;1.30;1.10;;;;;;;;;;4842823;29;20066;-83
2023/12/11 12:58:51;;;;;;;2.90;1.08;;;;;;;;;;4844007;29;20046;-84
2023/12/11 13:01:22;;;;;;;1.45;1.20;;;;;;;;;;4843583;29;20050;-84
2023/12/11 13:03:52;;;;;;;6.88;1.10;;;;;;;;;;4842186;29;20061;-83
2023/12/11 13:06:26;;;;;;;3.95;1.27;;;;;;;;;;4842752;29;20053;-84
2023/12/11 13:08:56;;;;;;;3.45;2.03;;;;;;;;;;4842412;29;20050;-84
2023/12/11 13:11:50;;;;;;;1.80;1.00;;;;;;;;;;4843769;29;20050;-82
2023/12/11 13:14:20;;;;;;;2.67;1.00;;;;;;;;;;4842182;29;20058;-82
2023/12/11 13:16:50;;;;;;;1.88;1.52;;;;;;;;;;4841719;29;20057;-83
2023/12/11 13:19:20;;;;;;;5.88;1.80;;;;;;;;;;4841944;29;20050;-83
2023/12/11 13:21:51;;;;;;;1.27;1.05;;;;;;;;;;4843350;29;20052;-82
2023/12/11 13:24:24;;;;;;;4.80;2.58;;;;;;;;;;4843116;29;20046;-83
2023/12/11 13:26:54;;;;;;;17.85;12.20;;;;;;;;;;4843354;29;20053;-83
2023/12/11 13:29:24;;;;;;;6.78;4.22;;;;;;;;;;4843628;29;20045;-85
2023/12/11 13:31:56;;;;;;;1.30;0.98;;;;;;;;;;4826280;29;20050;-83
2023/12/11 13:34:27;;;;;;;1.75;1.10;;;;;;;;;;4824761;29;20054;-82
2023/12/11 13:36:58;;;;;;;3.15;1.23;;;;;;;;;;4824645;29;20047;-82
2023/12/11 13:39:29;;;;;;;2.97;0.88;;;;;;;;;;4822575;29;20402;-83
2023/12/11 13:41:59;;;;;;;1.20;1.10;;;;;;;;;;4823871;29;20046;-84
2023/12/11 13:44:29;;;;;;;1.55;1.00;;;;;;;;;;4825386;29;20055;-86
2023/12/11 13:46:59;;;;;;;3.53;1.02;;;;;;;;;;4823445;29;20062;-85
2023/12/11 13:49:32;;;;;;;0.82;0.60;;;;;;;;;;4825887;29;20428;-85
2023/12/11 13:52:03;;;;;;;0.70;0.65;;;;;;;;;;4842793;29;20053;-86
2023/12/11 13:54:34;;;;;;;1.30;0.70;;;;;;;;;;4842801;29;20382;-88
2023/12/11 13:57:04;;;;;;;1.10;0.90;;;;;;;;;;4841779;29;20061;-86
2023/12/11 13:59:34;;;;;;;0.77;0.60;;;;;;;;;;4841632;29;20496;-85
2023/12/11 14:02:04;;;;;;;2.08;1.00;;;;;;;;;;4842696;29;20049;-85
2023/12/11 14:04:36;;;;;;;2.08;1.00;;;;;;;;;;4843115;29;20057;-86
2023/12/11 14:07:07;;;;;;;;;;;;;;;;;;4843189;29;20046;-85
2023/12/11 14:09:37;;;;;;;1.98;1.60;;;;;;;;;;4841483;29;20388;-87
2023/12/11 14:12:08;;;;;;;3.22;1.60;;;;;;;;;;4842610;29;20532;-85
2023/12/11 14:14:38;;;;;;;0.75;0.70;;;;;;;;;;4841164;29;20069;-87
2023/12/11 14:17:08;;;;;;;2.80;0.85;;;;;;;;;;4842583;29;20046;-87
2023/12/11 14:19:39;;;;;;;0.88;0.80;;;;;;;;;;4841262;29;20066;-87
2023/12/11 14:22:14;;;;;;;1.02;0.88;;;;;;;;;;4842712;29;20057;-86
2023/12/11 14:24:45;;;;;;;1.85;1.00;;;;;;;;;;4842326;29;20054;-85
2023/12/11 14:27:17;;;;;;;2.63;0.95;;;;;;;;;;4841651;29;20042;-85
2023/12/11 14:29:50;;;;;;;1.30;0.85;;;;;;;;;;4841132;29;20046;-86
2023/12/11 14:32:20;;;;;;;;;;;;;;;;;;4842543;29;20050;-86
2023/12/11 14:34:51;;;;;;;2.28;0.90;;;;;;;;;;4840427;29;19925;-85
2023/12/11 14:37:21;;;;;;;0.75;0.70;;;;;;;;;;4842223;29;20072;-85
2023/12/11 14:39:52;;;;;;;0.70;0.70;;;;;;;;;;4842120;29;20050;-86
2023/12/11 14:42:23;;;;;;;;;;;;;;;;;;4842993;29;20394;-86
2023/12/11 14:44:53;;;;;;;1.58;0.70;;;;;;;;;;4841021;29;19924;-87
2023/12/11 14:47:24;;;;;;;1.40;0.80;;;;;;;;;;4842428;29;20498;-86
2023/12/11 14:49:57;;;;;;;2.60;0.88;;;;;;;;;;4840061;29;20058;-86
2023/12/11 14:52:28;;;;;;;2.22;0.47;;;;;;;;;;4841795;29;20485;-86
2023/12/11 14:54:59;;;;;;;2.75;1.00;;;;;;;;;;4841926;29;20050;-86
2023/12/11 14:57:29;;;;;;;2.83;1.67;;;;;;;;;;4842264;29;20497;-86
2023/12/11 15:00:00;;;;;;;0.82;0.70;;;;;;;;;;4841643;29;20053;-86
2023/12/11 15:02:30;;;;;;;2.20;0.40;;;;;;;;;;4826047;29;20383;-85
2023/12/11 15:05:00;;;;;;;1.85;0.80;;;;;;;;;;4842906;29;20064;-87
2023/12/11 15:07:31;;;;;;;0.88;0.70;;;;;;;;;;4842061;29;20057;-86
2023/12/11 15:10:03;;;;;;;1.40;0.90;;;;;;;;;;4843198;29;20054;-85